04:00
Airports
History
Links
Donate
Help keep this website running!
PayPal
Bitcoin
This page is community maintained. The information is intended for PC simulator navigation or reference.
Always use approved charts for navigation.
LA05
Bordelon Airpark
Bordelon Airpark (LA05)
Breaux Bridge, Louisiana, United States (70517)
4
Lat/Lng:30° 18' 24.11" N / 91° 52' 35.02" W
30.306697 / -91.876394
Elevation:22'ft / 7mMSL
ID / ICAO:LA05
Runways:1
Longest:06-24
Grass 917m / 3,010ft
Nearby Weather03:53 GMT 2017-10-17
Nearby weather at KLFT, Lafayette Rgnl located 9.7 nautical miles from LA05
Altimeter: 30.21
Visibility: 10.0 statute miles
Wind: 8 knots (from 020°)
Temp: 14°c / 57°f
Humidity: 67.1%

METAR: KLFT 170353Z 02008KT 10SM CLR 14/08 A3021 RMK AO2 SLP230 T01440083

(Powered by phpweather)
Nearby VORs <50NM
Nearby NDBs
Runway 06 / 24
Dimensions:917.3 x 24.4m 3010' x 80'ft
Surface:Grass
Runway 06 [A]Runway 24 [B]
Heading:063°TH 243°TH
Lat:
Lng:
30° 18' 17.65"N
91° 52' 50.36"W
30° 18' 30.57"N
91° 52' 19.68"W
User Notes and Comments
30° 18' 24.11" N / 91° 52' 35.02" W
Distance To
Airport ID:
Nearby Airports
(R) Bordelon Airpark 0.7 NM
LS34 ENE 64°
(R) Spillers Club 5.7 NM
LA76 SSW 199°
(R) Gary Landing Strip 6.4 NM
LA91 SSE 156°
(R) Tim Bullard Memorial 9.6 NM
LS91 NW 322°
(C) Lafayette Rgnl 9.7 NM
KLFT ( WX ) SW 223°
(R) Industrial Helicopters Inc. 13.7 NM
10LA WSW 252°
4 Kibs Air Park 16.9 NM
L89 WNW 287°
VFR Chart
Flight Planning at SkyVector.com